createdAt,value
2018-06-28T00:00:15.001Z,13.95
2018-06-28T00:02:44.627Z,15.65
2018-06-28T00:05:13.269Z,14.87
2018-06-28T00:07:43.190Z,15.40
2018-06-28T00:10:11.973Z,13.93
2018-06-28T00:12:40.651Z,13.28
2018-06-28T00:15:09.549Z,13.43
2018-06-28T00:17:38.212Z,12.47
2018-06-28T00:20:07.353Z,12.73
2018-06-28T00:22:35.959Z,13.65
2018-06-28T00:25:05.444Z,12.50
2018-06-28T00:27:34.156Z,12.98
2018-06-28T00:30:02.946Z,13.45
2018-06-28T00:32:31.641Z,12.53
2018-06-28T00:35:00.275Z,12.10
2018-06-28T00:37:29.514Z,12.23
2018-06-28T00:39:58.066Z,13.83
2018-06-28T00:42:27.026Z,13.88
2018-06-28T00:44:55.739Z,16.02
2018-06-28T00:47:24.302Z,16.60
2018-06-28T00:49:53.087Z,17.82
2018-06-28T00:52:21.802Z,16.75
2018-06-28T00:54:51.884Z,15.65
2018-06-28T00:57:20.523Z,14.98
2018-06-28T00:59:50.121Z,16.65
2018-06-28T01:02:18.851Z,15.80
2018-06-28T01:04:47.624Z,16.07
2018-06-28T01:07:16.384Z,15.85
2018-06-28T01:09:45.017Z,17.45
2018-06-28T01:12:13.932Z,17.03
2018-06-28T01:14:42.549Z,17.20
2018-06-28T01:17:12.798Z,17.52
2018-06-28T01:19:41.466Z,18.10
2018-06-28T01:22:10.127Z,15.43
2018-06-28T01:24:38.770Z,16.67
2018-06-28T01:27:08.596Z,17.17
2018-06-28T01:29:37.237Z,19.57
2018-06-28T01:32:06.828Z,17.75
2018-06-28T01:34:35.484Z,16.50
2018-06-28T01:37:04.411Z,15.93
2018-06-28T01:39:33.080Z,16.87
2018-06-28T01:42:13.002Z,16.37
2018-06-28T01:44:41.573Z,15.95
2018-06-28T01:47:10.759Z,15.78
2018-06-28T01:49:39.415Z,13.38
2018-06-28T01:52:08.472Z,13.93
2018-06-28T01:54:37.138Z,13.18
2018-06-28T01:57:05.891Z,9.70
2018-06-28T01:59:34.731Z,8.70
2018-06-28T02:02:03.541Z,9.10
2018-06-28T02:04:32.927Z,8.60
2018-06-28T02:07:01.929Z,8.90
2018-06-28T02:09:31.029Z,7.40
2018-06-28T02:12:00.834Z,7.37
2018-06-28T02:14:29.848Z,7.67
2018-06-28T02:16:58.605Z,8.20
2018-06-28T02:19:27.940Z,9.60
2018-06-28T02:21:56.663Z,8.38
2018-06-28T02:24:26.453Z,8.13
2018-06-28T02:26:55.082Z,8.53
2018-06-28T02:29:24.104Z,8.60
2018-06-28T02:31:52.950Z,8.77
2018-06-28T02:34:21.629Z,7.47
2018-06-28T02:36:50.255Z,7.37
2018-06-28T02:39:19.034Z,8.00
2018-06-28T02:41:47.760Z,7.70
2018-06-28T02:44:17.596Z,7.90
2018-06-28T02:46:46.390Z,7.53
2018-06-28T02:49:15.239Z,7.60
2018-06-28T02:51:43.854Z,7.00
2018-06-28T02:54:12.441Z,7.33
2018-06-28T02:56:41.569Z,7.20
2018-06-28T02:59:10.201Z,6.65
2018-06-28T03:01:39.873Z,7.30
2018-06-28T03:04:08.738Z,6.60
2018-06-28T03:06:37.695Z,6.47
2018-06-28T03:09:08.873Z,5.83
2018-06-28T03:11:38.346Z,6.40
2018-06-28T03:14:07.485Z,6.20
2018-06-28T03:16:36.107Z,6.25
2018-06-28T03:19:04.835Z,5.92
2018-06-28T03:21:33.491Z,5.20
2018-06-28T03:24:02.191Z,5.77
2018-06-28T03:26:30.835Z,5.60
2018-06-28T03:28:59.924Z,5.53
2018-06-28T03:31:28.691Z,5.20
2018-06-28T03:33:57.834Z,4.95
2018-06-28T03:36:26.538Z,4.80
2018-06-28T03:38:55.649Z,4.35
2018-06-28T03:41:25.780Z,4.92
2018-06-28T03:43:55.178Z,4.53
2018-06-28T03:46:23.954Z,4.75
2018-06-28T03:48:52.542Z,4.35
2018-06-28T03:51:21.166Z,4.55
2018-06-28T03:53:49.828Z,4.50
2018-06-28T03:56:19.000Z,4.30
2018-06-28T03:58:47.650Z,4.40
2018-06-28T04:01:16.958Z,4.60
2018-06-28T04:03:45.937Z,4.47
2018-06-28T04:06:14.560Z,4.42
2018-06-28T04:08:43.195Z,4.70
2018-06-28T04:11:11.904Z,4.83
2018-06-28T04:13:41.315Z,4.47
2018-06-28T04:16:10.191Z,4.22
2018-06-28T04:18:38.752Z,4.42
2018-06-28T04:21:07.447Z,4.43
2018-06-28T04:23:37.297Z,4.20
2018-06-28T04:26:06.846Z,4.47
2018-06-28T04:28:35.730Z,4.20
2018-06-28T04:31:06.559Z,4.78
2018-06-28T04:33:35.272Z,5.05
2018-06-28T04:36:04.040Z,5.00
2018-06-28T04:38:33.428Z,4.83
2018-06-28T04:41:02.067Z,5.20
2018-06-28T04:43:31.361Z,4.97
2018-06-28T04:46:00.077Z,5.62
2018-06-28T04:48:29.161Z,5.80
2018-06-28T04:50:57.892Z,5.92
2018-06-28T04:53:26.722Z,5.75
2018-06-28T04:55:55.362Z,6.08
2018-06-28T04:58:24.069Z,6.12
2018-06-28T05:00:52.854Z,6.03
2018-06-28T05:03:22.155Z,6.47
2018-06-28T05:05:51.907Z,6.03
2018-06-28T05:08:20.558Z,6.22
2018-06-28T05:10:49.563Z,6.23
2018-06-28T05:13:18.182Z,6.40
2018-06-28T05:15:46.861Z,6.97
2018-06-28T05:18:15.611Z,7.00
2018-06-28T05:20:44.218Z,6.95
2018-06-28T05:23:13.252Z,6.97
2018-06-28T05:25:42.140Z,7.30
2018-06-28T05:28:15.562Z,7.23
2018-06-28T05:30:47.446Z,7.22
2018-06-28T05:33:16.367Z,6.72
2018-06-28T05:35:44.956Z,6.58
2018-06-28T05:38:13.580Z,7.60
2018-06-28T05:40:43.589Z,8.08
2018-06-28T05:43:12.243Z,7.95
2018-06-28T05:45:41.155Z,8.50
2018-06-28T05:48:09.859Z,8.93
2018-06-28T05:50:38.652Z,9.10
2018-06-28T05:53:07.476Z,10.30
2018-06-28T05:55:37.062Z,9.43
2018-06-28T05:58:05.761Z,9.85
2018-06-28T06:00:35.347Z,8.65
2018-06-28T06:03:04.248Z,8.63
2018-06-28T06:05:33.073Z,9.45
2018-06-28T06:08:01.906Z,8.43
2018-06-28T06:10:31.479Z,8.40
2018-06-28T06:13:00.084Z,9.73
2018-06-28T06:15:28.791Z,9.27
2018-06-28T06:17:57.452Z,9.35
2018-06-28T06:20:26.202Z,9.73
2018-06-28T06:22:54.824Z,9.60
2018-06-28T06:25:23.729Z,9.53
2018-06-28T06:27:52.462Z,10.00
2018-06-28T06:30:23.824Z,10.95
2018-06-28T06:32:52.543Z,10.48
2018-06-28T06:35:22.459Z,12.17
2018-06-28T06:37:51.759Z,11.30
2018-06-28T06:40:20.472Z,12.28
2018-06-28T06:42:49.161Z,12.20
2018-06-28T06:45:17.778Z,10.80
2018-06-28T06:47:46.749Z,11.73
2018-06-28T06:50:15.700Z,12.33
2018-06-28T06:52:44.420Z,11.95
2018-06-28T06:55:14.513Z,11.63
2018-06-28T06:57:43.767Z,11.75
2018-06-28T07:00:12.743Z,12.00
2018-06-28T07:02:41.517Z,12.43
2018-06-28T07:05:10.211Z,12.60
2018-06-28T07:07:38.888Z,12.63
2018-06-28T07:10:10.161Z,12.95
2018-06-28T07:12:38.781Z,12.75
2018-06-28T07:15:07.738Z,13.53
2018-06-28T07:17:36.507Z,13.08
2018-06-28T07:20:05.424Z,14.33
2018-06-28T07:25:19.477Z,14.33
2018-06-28T07:27:48.092Z,13.80
2018-06-28T07:30:16.835Z,14.67
2018-06-28T07:32:46.295Z,15.05
2018-06-28T07:35:15.068Z,14.65
2018-06-28T07:37:45.223Z,14.15
2018-06-28T07:40:13.893Z,13.60
2018-06-28T07:42:42.566Z,14.47
2018-06-28T07:45:11.515Z,14.63
2018-06-28T07:47:40.189Z,14.90
2018-06-28T07:50:09.297Z,13.30
2018-06-28T07:52:38.167Z,15.63
2018-06-28T07:55:06.805Z,14.28
2018-06-28T07:57:35.516Z,13.65
2018-06-28T08:00:06.338Z,12.70
2018-06-28T08:02:36.514Z,13.15
2018-06-28T08:05:07.816Z,13.85
2018-06-28T08:07:39.996Z,13.03
2018-06-28T08:10:09.079Z,12.82
2018-06-28T08:12:38.161Z,12.15
2018-06-28T08:15:09.404Z,12.00
2018-06-28T08:17:38.295Z,11.55
2018-06-28T08:20:16.957Z,11.90
2018-06-28T08:22:51.185Z,11.03
2018-06-28T08:25:30.868Z,11.65
2018-06-28T08:28:00.109Z,11.97
2018-06-28T08:30:29.157Z,11.97
2018-06-28T08:32:58.125Z,11.15
2018-06-28T08:35:27.406Z,11.00
2018-06-28T08:37:56.347Z,12.00
2018-06-28T08:40:28.276Z,12.15
2018-06-28T08:42:57.129Z,11.48
2018-06-28T08:45:27.280Z,12.37
2018-06-28T08:47:56.143Z,11.93
2018-06-28T08:50:25.688Z,12.50
2018-06-28T08:52:55.441Z,10.82
2018-06-28T08:55:24.614Z,12.80
2018-06-28T08:57:56.098Z,12.23
2018-06-28T09:00:24.750Z,12.60
2018-06-28T09:02:54.067Z,11.85
2018-06-28T09:05:22.945Z,9.68
2018-06-28T09:07:51.914Z,11.38
2018-06-28T09:10:20.718Z,11.55
2018-06-28T09:12:49.600Z,11.48
2018-06-28T09:15:18.593Z,10.10
2018-06-28T09:17:49.519Z,10.18
2018-06-28T09:20:18.271Z,10.05
2018-06-28T09:22:47.101Z,9.95
2018-06-28T09:25:16.047Z,9.37
2018-06-28T09:27:44.910Z,9.23
2018-06-28T09:30:13.764Z,8.78
2018-06-28T09:32:42.981Z,9.03
2018-06-28T09:35:11.722Z,8.63
2018-06-28T09:37:40.604Z,8.48
2018-06-28T09:40:11.511Z,9.25
2018-06-28T09:42:40.559Z,8.78
2018-06-28T09:45:09.622Z,8.60
2018-06-28T09:47:38.766Z,11.93
2018-06-28T09:50:07.665Z,8.75
2018-06-28T09:52:37.716Z,8.43
2018-06-28T09:55:06.896Z,8.45
2018-06-28T09:57:35.756Z,8.70
2018-06-28T10:00:05.480Z,7.87
2018-06-28T10:02:37.677Z,7.90
2018-06-28T10:05:06.596Z,7.87
2018-06-28T10:07:46.326Z,8.05
2018-06-28T10:10:26.542Z,8.30
2018-06-28T10:12:55.610Z,7.58
2018-06-28T10:15:24.733Z,7.90
2018-06-28T10:17:55.016Z,8.00
2018-06-28T10:20:24.187Z,8.10
2018-06-28T10:22:54.826Z,8.73
2018-06-28T10:25:23.895Z,8.10
2018-06-28T10:27:57.456Z,8.35
2018-06-28T10:30:26.244Z,10.32
2018-06-28T10:32:55.848Z,7.42
2018-06-28T10:35:24.721Z,9.33
2018-06-28T10:37:53.683Z,7.50
2018-06-28T10:40:29.238Z,7.90
2018-06-28T10:42:58.485Z,7.67
2018-06-28T10:45:28.595Z,13.30
2018-06-28T10:47:57.500Z,9.48
2018-06-28T10:50:28.689Z,8.08
2018-06-28T10:55:45.613Z,8.55
2018-06-28T10:58:14.690Z,8.50
2018-06-28T11:00:49.634Z,8.18
2018-06-28T11:03:18.826Z,10.37
2018-06-28T11:05:47.751Z,9.23
2018-06-28T11:08:16.492Z,9.55
2018-06-28T11:10:45.276Z,7.40
2018-06-28T11:13:14.192Z,8.78
2018-06-28T11:15:43.309Z,8.10
2018-06-28T11:18:12.118Z,7.90
2018-06-28T11:20:41.032Z,6.73
2018-06-28T11:23:09.884Z,7.33
2018-06-28T11:25:38.600Z,6.95
2018-06-28T11:28:07.644Z,6.20
2018-06-28T11:30:36.563Z,7.47
2018-06-28T11:33:06.424Z,6.55
2018-06-28T11:35:35.332Z,6.20
2018-06-28T11:38:04.644Z,5.80
2018-06-28T11:40:33.495Z,5.30
2018-06-28T11:43:02.672Z,6.23
2018-06-28T11:45:31.541Z,7.87
2018-06-28T11:48:00.361Z,6.90
2018-06-28T11:50:29.911Z,6.40
2018-06-28T11:52:58.911Z,7.45
2018-06-28T11:55:28.126Z,6.90
2018-06-28T11:57:57.211Z,6.20
2018-06-28T12:00:26.170Z,6.58
2018-06-28T12:02:55.377Z,6.58
2018-06-28T12:05:24.072Z,6.75
2018-06-28T12:07:52.983Z,6.60
2018-06-28T12:10:21.868Z,6.75
2018-06-28T12:12:50.873Z,6.70
2018-06-28T12:15:19.791Z,5.50
2018-06-28T12:17:48.747Z,5.65
2018-06-28T12:20:17.594Z,5.33
2018-06-28T12:22:46.403Z,4.97
2018-06-28T12:25:16.087Z,5.50
2018-06-28T12:27:44.902Z,5.25
2018-06-28T12:30:13.890Z,5.53
2018-06-28T12:32:42.676Z,5.30
2018-06-28T12:35:11.385Z,5.12
2018-06-28T12:37:40.624Z,8.40
2018-06-28T12:40:09.368Z,1.95
2018-06-28T12:42:38.451Z,4.10
2018-06-28T12:45:07.747Z,5.45
2018-06-28T12:47:48.978Z,4.40
2018-06-28T12:50:17.915Z,3.98
2018-06-28T12:52:48.851Z,5.35
2018-06-28T12:55:19.648Z,4.35
2018-06-28T12:57:49.046Z,4.40
2018-06-28T13:00:18.294Z,5.10
2018-06-28T13:02:58.650Z,4.05
2018-06-28T13:05:27.803Z,4.00
2018-06-28T13:07:56.915Z,7.05
2018-06-28T13:10:25.992Z,5.97
2018-06-28T13:12:55.000Z,5.25
2018-06-28T13:15:23.810Z,4.17
2018-06-28T13:17:52.456Z,3.40
2018-06-28T13:20:21.193Z,3.90
2018-06-28T13:22:50.115Z,2.27
2018-06-28T13:25:19.503Z,4.20
2018-06-28T13:27:48.426Z,3.20
2018-06-28T13:30:17.326Z,2.98
2018-06-28T13:32:45.978Z,2.37
2018-06-28T13:35:14.968Z,4.05
2018-06-28T13:37:43.912Z,3.90
2018-06-28T13:40:12.955Z,3.65
2018-06-28T13:42:41.851Z,2.50
2018-06-28T13:45:10.704Z,3.62
2018-06-28T13:47:39.588Z,2.25
2018-06-28T13:50:08.436Z,7.83
2018-06-28T13:52:37.952Z,3.75
2018-06-28T13:55:06.974Z,3.70
2018-06-28T13:57:35.676Z,4.80
2018-06-28T14:00:05.013Z,5.92
2018-06-28T14:02:33.906Z,5.17
2018-06-28T14:05:02.689Z,2.37
2018-06-28T14:07:31.754Z,4.50
2018-06-28T14:10:00.691Z,3.25
2018-06-28T14:12:29.418Z,2.67
2018-06-28T14:14:58.176Z,2.33
2018-06-28T14:17:27.236Z,4.17
2018-06-28T14:20:02.487Z,1.20
2018-06-28T14:22:32.067Z,2.40
2018-06-28T14:25:00.891Z,3.27
2018-06-28T14:27:29.667Z,4.78
2018-06-28T14:29:58.557Z,3.20
2018-06-28T14:32:27.603Z,3.00
2018-06-28T14:34:56.535Z,2.62
2018-06-28T14:37:25.457Z,2.90
2018-06-28T14:39:54.188Z,3.92
2018-06-28T14:42:23.073Z,3.20
2018-06-28T14:44:52.177Z,2.45
2018-06-28T14:47:21.123Z,2.20
2018-06-28T14:49:49.844Z,2.05
2018-06-28T14:52:18.740Z,2.40
2018-06-28T14:54:47.525Z,5.53
2018-06-28T14:57:16.345Z,4.97
2018-06-28T14:59:45.346Z,2.70
2018-06-28T15:02:14.463Z,3.25
2018-06-28T15:04:43.243Z,2.75
2018-06-28T15:07:12.172Z,4.90
2018-06-28T15:09:41.238Z,3.00
2018-06-28T15:12:09.990Z,7.53
2018-06-28T15:14:39.078Z,4.87
2018-06-28T15:17:08.150Z,4.80
2018-06-28T15:19:37.284Z,6.85
2018-06-28T15:22:06.040Z,2.27
2018-06-28T15:24:36.363Z,5.35
2018-06-28T15:27:05.398Z,2.10
2018-06-28T15:29:34.199Z,2.67
2018-06-28T15:32:03.152Z,3.63
2018-06-28T15:34:31.976Z,1.30
2018-06-28T15:37:00.803Z,2.75
2018-06-28T15:39:29.827Z,3.15
2018-06-28T15:41:58.674Z,3.00
2018-06-28T15:44:27.718Z,3.25
2018-06-28T15:46:56.590Z,2.87
2018-06-28T15:49:25.333Z,0.60
2018-06-28T15:51:54.126Z,5.30
2018-06-28T15:54:22.774Z,2.35
2018-06-28T15:56:51.548Z,3.20
2018-06-28T15:59:20.626Z,1.65
2018-06-28T16:01:52.817Z,1.20
2018-06-28T16:04:21.818Z,1.30
2018-06-28T16:06:51.317Z,1.60
2018-06-28T16:09:26.947Z,1.32
2018-06-28T16:11:56.023Z,2.40
2018-06-28T16:14:24.708Z,1.35
2018-06-28T16:16:53.379Z,1.52
2018-06-28T16:19:23.985Z,3.30
2018-06-28T16:21:52.704Z,1.12
2018-06-28T16:24:26.896Z,1.90
2018-06-28T16:27:03.218Z,1.52
2018-06-28T16:29:32.359Z,0.90
2018-06-28T16:32:02.551Z,0.93
2018-06-28T16:34:31.584Z,0.93
2018-06-28T16:37:00.517Z,3.67
2018-06-28T16:39:29.338Z,2.55
2018-06-28T16:41:58.099Z,1.43
2018-06-28T16:44:26.882Z,1.50
2018-06-28T16:46:55.692Z,3.33
2018-06-28T16:49:26.509Z,2.00
2018-06-28T16:51:55.358Z,3.35
2018-06-28T16:54:26.024Z,3.60
2018-06-28T16:56:54.964Z,3.67
2018-06-28T16:59:23.713Z,3.60
2018-06-28T17:01:52.441Z,1.70
2018-06-28T17:04:21.212Z,2.10
2018-06-28T17:06:49.924Z,1.32
2018-06-28T17:09:18.671Z,2.35
2018-06-28T17:11:47.401Z,1.47
2018-06-28T17:14:16.286Z,13.98
2018-06-28T17:16:45.252Z,3.37
2018-06-28T17:19:19.958Z,1.60
2018-06-28T17:21:57.861Z,1.82
2018-06-28T17:24:26.740Z,1.35
2018-06-28T17:26:55.575Z,1.45
2018-06-28T17:29:24.298Z,1.47
2018-06-28T17:31:53.122Z,2.33
2018-06-28T17:34:21.966Z,3.45
2018-06-28T17:36:50.979Z,3.07
2018-06-28T17:39:19.980Z,1.45
2018-06-28T17:41:48.757Z,3.95
2018-06-28T17:44:17.510Z,1.30
2018-06-28T17:46:46.269Z,2.83
2018-06-28T17:49:15.152Z,1.70
2018-06-28T17:51:43.958Z,2.08
2018-06-28T17:54:12.704Z,2.42
2018-06-28T17:56:41.412Z,5.63
2018-06-28T17:59:10.136Z,13.93
2018-06-28T18:01:38.904Z,6.75
2018-06-28T18:04:07.589Z,5.87
2018-06-28T18:06:36.289Z,2.02
2018-06-28T18:09:08.211Z,5.03
2018-06-28T18:11:37.965Z,3.27
2018-06-28T18:14:07.308Z,3.00
2018-06-28T18:16:36.430Z,2.85
2018-06-28T18:19:05.441Z,6.28
2018-06-28T18:21:34.282Z,1.55
2018-06-28T18:24:03.353Z,2.45
2018-06-28T18:26:32.126Z,3.15
2018-06-28T18:29:00.969Z,2.77
2018-06-28T18:31:29.717Z,4.12
2018-06-28T18:34:02.557Z,2.90
2018-06-28T18:36:31.511Z,2.80
2018-06-28T18:39:01.543Z,1.32
2018-06-28T18:41:33.829Z,3.70
2018-06-28T18:44:02.634Z,1.77
2018-06-28T18:46:31.821Z,1.70
2018-06-28T18:49:00.551Z,2.60
2018-06-28T18:51:29.333Z,1.72
2018-06-28T18:54:00.087Z,3.00
2018-06-28T18:56:28.868Z,2.47
2018-06-28T18:58:57.687Z,2.37
2018-06-28T19:01:27.093Z,1.55
2018-06-28T19:03:56.751Z,2.90
2018-06-28T19:06:25.574Z,2.05
2018-06-28T19:08:54.399Z,2.33
2018-06-28T19:11:23.995Z,3.80
2018-06-28T19:13:58.035Z,3.25
2018-06-28T19:16:31.807Z,3.20
2018-06-28T19:19:00.451Z,3.25
2018-06-28T19:21:34.267Z,2.50
2018-06-28T19:24:03.066Z,2.70
2018-06-28T19:26:34.082Z,2.60
2018-06-28T19:29:08.168Z,2.50
2018-06-28T19:31:42.059Z,4.30
2018-06-28T19:34:16.404Z,4.20
2018-06-28T19:36:50.532Z,2.42
2018-06-28T19:39:24.643Z,2.73
2018-06-28T19:41:58.533Z,3.92
2018-06-28T19:44:27.264Z,2.80
2018-06-28T19:46:57.926Z,2.30
2018-06-28T19:49:32.200Z,2.67
2018-06-28T19:52:07.598Z,3.23
2018-06-28T19:54:36.325Z,2.60
2018-06-28T19:57:04.972Z,2.95
2018-06-28T19:59:38.780Z,3.00
2018-06-28T20:02:12.899Z,3.00
2018-06-28T20:04:46.225Z,3.37
2018-06-28T20:07:15.059Z,4.30
2018-06-28T20:09:43.978Z,3.27
2018-06-28T20:12:18.608Z,3.37
2018-06-28T20:14:52.430Z,3.83
2018-06-28T20:17:26.491Z,3.80
2018-06-28T20:20:00.538Z,3.62
2018-06-28T20:22:29.515Z,3.70
2018-06-28T20:24:58.440Z,4.20
2018-06-28T20:27:32.316Z,4.42
2018-06-28T20:30:06.395Z,4.95
2018-06-28T20:32:41.122Z,5.70
2018-06-28T20:35:09.952Z,5.45
2018-06-28T20:37:39.510Z,5.87
2018-06-28T20:40:08.960Z,6.50
2018-06-28T20:42:37.711Z,5.20
2018-06-28T20:45:06.528Z,4.42
2018-06-28T20:47:35.256Z,3.10
2018-06-28T20:50:04.399Z,2.87
2018-06-28T20:52:33.326Z,3.00
2018-06-28T20:55:02.440Z,3.47
2018-06-28T20:57:31.072Z,3.37
2018-06-28T21:00:01.972Z,4.47
2018-06-28T21:02:30.902Z,3.60
2018-06-28T21:04:59.596Z,2.85
2018-06-28T21:07:28.392Z,4.35
2018-06-28T21:09:57.275Z,3.17
2018-06-28T21:12:26.041Z,4.10
2018-06-28T21:14:55.274Z,2.42
2018-06-28T21:17:24.016Z,2.12
2018-06-28T21:19:52.940Z,2.80
2018-06-28T21:22:22.207Z,2.22
2018-06-28T21:24:51.004Z,3.55
2018-06-28T21:27:19.673Z,3.85
2018-06-28T21:29:51.044Z,2.57
2018-06-28T21:32:19.714Z,2.55
2018-06-28T21:34:48.588Z,5.33
2018-06-28T21:37:17.323Z,2.60
2018-06-28T21:39:46.123Z,3.65
2018-06-28T21:42:14.782Z,2.67
2018-06-28T21:44:43.444Z,3.30
2018-06-28T21:47:12.224Z,5.20
2018-06-28T21:49:41.067Z,3.60
2018-06-28T21:53:12.081Z,4.80
2018-06-28T21:55:40.812Z,4.80
2018-06-28T21:58:09.522Z,3.20
2018-06-28T22:00:38.874Z,3.33
2018-06-28T22:03:09.032Z,3.67
2018-06-28T22:05:37.681Z,3.55
2018-06-28T22:08:06.569Z,3.10
2018-06-28T22:10:35.233Z,4.00
2018-06-28T22:13:03.990Z,3.52
2018-06-28T22:15:32.926Z,3.97
2018-06-28T22:18:03.811Z,4.00
2018-06-28T22:20:34.239Z,3.58
2018-06-28T22:23:03.020Z,4.00
2018-06-28T22:25:32.015Z,4.00
2018-06-28T22:28:00.832Z,3.80
2018-06-28T22:30:29.488Z,4.20
2018-06-28T22:32:59.749Z,4.87
2018-06-28T22:35:28.541Z,4.62
2018-06-28T22:37:57.280Z,4.65
2018-06-28T22:40:26.022Z,4.47
2018-06-28T22:42:54.753Z,4.55
2018-06-28T22:45:23.692Z,5.15
2018-06-28T22:47:52.403Z,4.93
2018-06-28T22:50:21.197Z,5.75
2018-06-28T22:52:49.977Z,6.12
2018-06-28T22:55:18.788Z,5.85
2018-06-28T22:57:47.618Z,5.70
2018-06-28T23:00:21.201Z,5.80
2018-06-28T23:02:50.086Z,6.35
2018-06-28T23:05:19.205Z,6.70
2018-06-28T23:07:47.883Z,7.00
2018-06-28T23:10:16.834Z,7.20
2018-06-28T23:12:46.608Z,7.60
2018-06-28T23:15:15.342Z,7.80
2018-06-28T23:17:44.191Z,7.90
2018-06-28T23:20:14.294Z,9.38
2018-06-28T23:22:45.315Z,9.83
2018-06-28T23:25:14.840Z,10.05
2018-06-28T23:27:44.424Z,10.65
2018-06-28T23:30:13.388Z,10.38
2018-06-28T23:32:42.158Z,11.50
2018-06-28T23:35:10.798Z,11.20
2018-06-28T23:37:39.785Z,12.43
2018-06-28T23:40:08.486Z,12.70
2018-06-28T23:42:37.738Z,13.25
2018-06-28T23:45:07.679Z,12.90
2018-06-28T23:47:36.510Z,12.78
2018-06-28T23:50:06.259Z,12.58
2018-06-28T23:52:35.069Z,13.50
2018-06-28T23:55:03.759Z,13.08
2018-06-28T23:57:32.557Z,13.32
